Time;durP1;ratioP1;P1;durP2;ratioP2;P2;SDS_P1;SDS_P2;PMS_P1;PMS_P2;Temp;Humidity;BMP_temperature;BMP_pressure;BME280_temperature;BME280_humidity;BME280_pressure;Samples;Min_cycle;Max_cycle;Signal;HPM_P1;HPM_P2
2021/12/06 04:57:06;;;;;;;4.43;3.67;;;0.30;99.90;;;;;;5344551;23;20705;-72
2021/12/06 04:59:36;;;;;;;3.90;3.60;;;0.30;99.90;;;;;;4996101;28;20197;-72
2021/12/06 05:02:08;;;;;;;3.95;3.65;;;0.30;99.90;;;;;;4996785;28;20229;-73
2021/12/06 05:04:37;;;;;;;4.38;3.65;;;0.40;99.90;;;;;;4996135;28;20201;-72
2021/12/06 05:07:10;;;;;;;3.45;3.22;;;0.40;99.90;;;;;;4995846;28;20225;-73
2021/12/06 05:09:39;;;;;;;3.28;3.08;;;0.50;99.90;;;;;;4996498;28;20191;-73
2021/12/06 05:12:10;;;;;;;3.97;3.67;;;0.50;99.90;;;;;;4995813;28;20289;-69
2021/12/06 05:14:38;;;;;;;3.17;2.97;;;0.60;99.90;;;;;;4995535;28;20710;-70
2021/12/06 05:17:05;;;;;;;4.18;3.85;;;0.50;99.90;;;;;;4995431;28;20709;-69
2021/12/06 05:19:33;;;;;;;3.60;3.38;;;0.60;99.90;;;;;;4995703;28;20202;-69
2021/12/06 05:22:01;;;;;;;3.50;3.30;;;0.50;99.90;;;;;;4995559;28;20245;-69
2021/12/06 05:24:27;;;;;;;3.08;2.88;;;0.50;99.90;;;;;;4995586;28;20297;-69
2021/12/06 05:26:55;;;;;;;3.83;3.53;;;0.50;99.90;;;;;;4995171;28;20797;-69
2021/12/06 05:29:27;;;;;;;3.17;2.97;;;0.50;99.90;;;;;;4995527;28;20203;-69
2021/12/06 05:31:57;;;;;;;3.00;2.80;;;0.50;99.90;;;;;;4995180;28;20615;-69
2021/12/06 05:34:31;;;;;;;3.20;3.00;;;0.60;99.90;;;;;;4995087;28;20203;-69
2021/12/06 05:36:58;;;;;;;4.25;3.70;;;0.50;99.90;;;;;;4994995;28;20254;-70
2021/12/06 05:39:30;;;;;;;3.63;3.30;;;0.50;99.90;;;;;;4995368;28;20294;-70
2021/12/06 05:41:57;;;;;;;3.83;3.45;;;0.50;99.90;;;;;;4995218;28;20238;-69
2021/12/06 05:44:25;;;;;;;4.38;3.92;;;0.50;99.90;;;;;;4995336;28;20285;-70
2021/12/06 05:46:52;;;;;;;4.30;3.90;;;0.50;99.90;;;;;;4995005;28;20329;-70
2021/12/06 05:49:19;;;;;;;6.65;5.25;;;0.50;99.90;;;;;;4995018;28;20202;-70
2021/12/06 05:51:46;;;;;;;8.07;6.07;;;0.60;99.90;;;;;;4994609;28;20195;-70
2021/12/06 05:54:13;;;;;;;6.82;5.50;;;0.50;99.90;;;;;;4994688;28;20206;-70
2021/12/06 05:56:40;;;;;;;8.23;5.78;;;0.60;99.90;;;;;;4994527;28;20305;-70
2021/12/06 05:59:07;;;;;;;7.90;6.05;;;0.60;99.90;;;;;;4994265;28;20201;-70
2021/12/06 06:01:35;;;;;;;9.55;6.72;;;0.60;99.90;;;;;;4994944;28;20313;-70
2021/12/06 06:04:02;;;;;;;8.10;5.95;;;0.60;99.90;;;;;;4994642;28;20722;-70
2021/12/06 06:06:29;;;;;;;9.10;6.40;;;0.60;99.90;;;;;;4995436;28;20322;-70
2021/12/06 06:08:57;;;;;;;6.57;5.40;;;0.70;99.90;;;;;;4994626;28;20761;-70
2021/12/06 06:11:24;;;;;;;5.63;5.07;;;0.70;99.90;;;;;;4994895;28;20635;-74
2021/12/06 11:10:59;;;;;;;3.00;2.80;;;3.30;99.90;;;;;;4897024;29;20236;-75
2021/12/06 11:13:29;;;;;;;2.38;2.28;;;3.30;99.90;;;;;;4899138;29;20553;-75
2021/12/06 11:16:14;;;;;;;2.45;2.35;;;3.40;99.90;;;;;;4898568;29;20277;-74
2021/12/06 11:18:49;;;;;;;2.50;2.40;;;3.50;99.90;;;;;;4898450;29;20269;-74
2021/12/06 11:21:29;;;;;;;2.15;2.05;;;3.50;99.90;;;;;;4898465;29;20306;-72
2021/12/06 11:24:01;;;;;;;2.13;2.03;;;3.60;99.90;;;;;;4898921;29;20211;-75
2021/12/06 11:26:32;;;;;;;2.10;2.00;;;3.50;99.90;;;;;;4898539;29;20190;-75
2021/12/06 11:29:06;;;;;;;2.28;2.08;;;3.60;99.90;;;;;;4898385;29;20261;-75
2021/12/06 11:31:33;;;;;;;1.98;1.88;;;3.50;99.90;;;;;;4898281;29;20190;-75
2021/12/06 11:34:03;;;;;;;2.42;2.33;;;3.60;99.90;;;;;;4898541;29;20206;-75
2021/12/06 11:36:31;;;;;;;2.67;2.47;;;3.50;99.90;;;;;;4898349;29;20294;-75
2021/12/06 11:39:05;;;;;;;1.90;1.80;;;3.50;99.90;;;;;;4898232;29;20225;-74
2021/12/06 11:41:33;;;;;;;1.90;1.90;;;3.40;99.90;;;;;;4898426;29;20224;-74
2021/12/06 11:44:13;;;;;;;2.50;2.33;;;3.40;99.90;;;;;;4897962;29;20300;-74
2021/12/06 11:46:40;;;;;;;1.80;1.80;;;3.40;99.90;;;;;;4898216;29;20620;-74
2021/12/06 11:49:16;;;;;;;2.33;2.22;;;3.40;99.90;;;;;;4898092;29;20261;-74
2021/12/06 11:51:43;;;;;;;2.22;2.13;;;3.40;99.90;;;;;;4898085;29;20276;-74
2021/12/06 11:54:10;;;;;;;1.60;1.60;;;3.50;99.90;;;;;;4898062;29;20212;-74
2021/12/06 11:56:44;;;;;;;1.70;1.60;;;3.50;99.90;;;;;;4899497;29;20208;-75
2021/12/06 11:59:15;;;;;;;1.77;1.67;;;3.50;99.90;;;;;;4901707;29;20300;-75
2021/12/06 12:01:45;;;;;;;1.80;1.70;;;3.60;99.90;;;;;;4901714;29;20249;-76
2021/12/06 12:04:16;;;;;;;1.67;1.67;;;3.60;99.90;;;;;;4901689;29;20233;-74
2021/12/06 12:06:44;;;;;;;1.50;1.50;;;3.70;99.90;;;;;;4901692;29;20277;-75
2021/12/06 12:09:14;;;;;;;1.60;1.60;;;3.70;99.90;;;;;;4901387;29;20312;-75
2021/12/06 12:12:02;;;;;;;1.92;1.83;;;3.60;99.90;;;;;;4901177;29;20232;-75
2021/12/06 12:14:33;;;;;;;2.33;2.13;;;3.50;99.90;;;;;;4901149;29;20717;-75
2021/12/06 12:17:01;;;;;;;1.70;1.70;;;3.50;99.90;;;;;;4901386;29;20666;-75
2021/12/06 12:19:28;;;;;;;1.60;1.50;;;3.50;99.90;;;;;;4901018;29;20661;-75
2021/12/06 12:21:55;;;;;;;1.77;1.67;;;3.60;99.90;;;;;;4901373;29;20313;-75
2021/12/06 12:24:22;;;;;;;1.83;1.75;;;3.60;99.90;;;;;;4901337;29;20296;-75
2021/12/06 12:27:07;;;;;;;1.70;1.60;;;3.60;99.90;;;;;;4901256;29;20562;-74
2021/12/06 12:29:35;;;;;;;1.50;1.50;;;3.60;99.90;;;;;;4901415;29;20230;-76
2021/12/06 12:32:06;;;;;;;1.70;1.60;;;3.60;99.90;;;;;;4901442;29;20297;-74
2021/12/06 12:34:37;;;;;;;1.50;1.50;;;3.60;99.90;;;;;;4901085;29;20186;-75
2021/12/06 12:37:06;;;;;;;1.40;1.40;;;3.50;99.90;;;;;;4901890;29;20246;-73
2021/12/06 12:39:35;;;;;;;1.30;1.30;;;3.50;99.90;;;;;;4904055;29;20226;-73
2021/12/06 12:42:06;;;;;;;1.48;1.48;;;3.50;99.90;;;;;;4904615;29;20821;-75
2021/12/06 12:44:47;;;;;;;1.30;1.30;;;3.50;99.90;;;;;;4904625;29;20194;-73
2021/12/06 12:47:17;;;;;;;1.05;1.05;;;3.50;99.90;;;;;;4905323;29;20234;-72
2021/12/06 12:49:47;;;;;;;1.23;1.23;;;3.50;99.90;;;;;;4903634;29;20233;-72
2021/12/06 12:52:14;;;;;;;1.20;1.20;;;3.50;99.90;;;;;;4904856;29;20285;-71
2021/12/06 12:54:45;;;;;;;1.10;1.10;;;3.50;99.90;;;;;;4905345;29;20241;-72
2021/12/06 12:57:14;;;;;;;1.00;1.00;;;3.40;99.90;;;;;;4905394;29;20194;-72
2021/12/06 12:59:48;;;;;;;1.13;1.13;;;3.30;99.90;;;;;;4903047;29;20714;-70
2021/12/06 13:02:26;;;;;;;1.30;1.30;;;3.30;99.90;;;;;;4905010;29;20209;-71
2021/12/06 13:05:26;;;;;;;0.90;0.90;;;3.20;99.90;;;;;;4905133;29;20211;-71
2021/12/06 13:08:08;;;;;;;1.02;1.02;;;3.10;99.90;;;;;;4904730;29;20650;-71
2021/12/06 13:10:56;;;;;;;1.10;1.10;;;3.10;99.90;;;;;;4904279;29;20229;-70
2021/12/06 13:13:34;;;;;;;1.08;1.08;;;3.00;99.90;;;;;;4904717;29;20186;-71
2021/12/06 13:16:09;;;;;;;1.40;1.00;;;3.00;99.90;;;;;;4903081;29;20194;-71
2021/12/06 13:19:04;;;;;;;0.95;0.95;;;3.00;99.90;;;;;;4900109;29;20190;-70
2021/12/06 13:22:12;;;;;;;0.90;0.90;;;2.90;99.90;;;;;;4900237;29;20233;-71
2021/12/06 13:24:59;;;;;;;1.10;1.10;;;2.90;99.90;;;;;;4901050;29;20195;-72
2021/12/06 13:27:42;;;;;;;1.00;1.00;;;2.90;99.90;;;;;;4900843;29;20281;-72
2021/12/06 13:30:22;;;;;;;1.10;1.00;;;2.90;99.90;;;;;;4903631;29;20221;-71
2021/12/06 13:32:54;;;;;;;0.80;0.80;;;2.90;99.90;;;;;;4902566;29;20190;-71
2021/12/06 13:35:43;;;;;;;1.05;1.05;;;2.90;99.90;;;;;;4900726;29;20205;-69
2021/12/06 13:38:20;;;;;;;1.00;1.00;;;2.90;99.90;;;;;;4900158;29;20666;-69
2021/12/06 13:41:12;;;;;;;0.90;0.90;;;2.90;99.90;;;;;;4900219;29;20717;-69
2021/12/06 13:43:43;;;;;;;1.10;1.10;;;2.90;99.90;;;;;;4900091;29;20696;-69
2021/12/06 13:46:21;;;;;;;0.80;0.80;;;2.90;99.90;;;;;;4900554;29;20226;-69
2021/12/06 13:48:52;;;;;;;0.70;0.70;;;2.80;99.90;;;;;;4899885;29;20230;-69
2021/12/06 13:51:29;;;;;;;1.05;1.05;;;2.80;99.90;;;;;;4899618;29;20286;-69
2021/12/06 13:53:58;;;;;;;1.08;1.08;;;2.80;99.90;;;;;;4899692;29;20273;-69
2021/12/06 13:56:48;;;;;;;0.95;0.95;;;2.70;99.90;;;;;;4899318;29;20216;-69
2021/12/06 13:59:19;;;;;;;1.00;1.00;;;2.70;99.90;;;;;;4899628;29;20313;-69
2021/12/06 14:01:47;;;;;;;1.08;1.08;;;2.70;99.90;;;;;;4899197;29;20631;-69
2021/12/06 14:04:19;;;;;;;1.23;1.23;;;2.60;99.90;;;;;;4899573;29;20210;-71
2021/12/06 14:06:49;;;;;;;1.67;1.20;;;2.60;99.90;;;;;;4899500;29;20718;-71
2021/12/06 14:09:17;;;;;;;1.30;1.30;;;2.60;99.90;;;;;;4899752;29;20226;-71
2021/12/06 14:11:45;;;;;;;1.02;1.02;;;2.60;99.90;;;;;;4899206;29;20210;-69
2021/12/06 14:14:14;;;;;;;1.20;1.20;;;2.60;99.90;;;;;;4899471;29;20202;-69
2021/12/06 14:16:42;;;;;;;1.20;1.20;;;2.60;99.90;;;;;;4898952;29;20220;-70
2021/12/06 14:19:10;;;;;;;1.55;1.48;;;2.50;99.90;;;;;;4898579;29;20229;-70
2021/12/06 14:21:43;;;;;;;1.20;1.13;;;2.50;99.90;;;;;;4899205;29;20297;-70
2021/12/06 14:24:10;;;;;;;2.10;2.00;;;2.50;99.90;;;;;;4899136;29;20190;-70
2021/12/06 14:26:41;;;;;;;2.17;2.08;;;2.50;99.90;;;;;;4898951;29;20768;-70
2021/12/06 14:29:14;;;;;;;3.13;2.40;;;2.40;99.90;;;;;;4898714;29;20789;-70
2021/12/06 14:31:42;;;;;;;1.95;1.85;;;2.40;99.90;;;;;;4899352;29;20194;-71
2021/12/06 14:34:08;;;;;;;2.28;2.08;;;2.30;99.90;;;;;;4898675;29;20577;-70
2021/12/06 14:36:35;;;;;;;1.73;1.70;;;2.20;99.90;;;;;;4898580;29;20744;-70
2021/12/06 14:39:13;;;;;;;2.13;2.03;;;2.20;99.90;;;;;;4898507;29;20566;-70
2021/12/06 14:41:55;;;;;;;1.80;1.70;;;2.20;99.90;;;;;;4898527;29;20565;-72
2021/12/06 14:44:47;;;;;;;1.75;1.70;;;2.10;99.90;;;;;;4898745;29;20200;-72
2021/12/06 14:47:25;;;;;;;1.63;1.52;;;2.10;99.90;;;;;;4889636;29;20214;-72
2021/12/06 14:49:53;;;;;;;1.70;1.70;;;2.00;99.90;;;;;;4898907;29;20312;-71
2021/12/06 14:52:25;;;;;;;1.20;1.20;;;2.00;99.90;;;;;;4898828;29;20630;-70
2021/12/06 14:55:14;;;;;;;1.42;1.42;;;1.90;99.90;;;;;;4898581;29;20284;-71
2021/12/06 14:57:42;;;;;;;1.42;1.42;;;1.80;99.90;;;;;;4898887;29;20213;-71
2021/12/06 15:00:13;;;;;;;1.27;1.27;;;1.80;99.90;;;;;;4898676;29;20278;-71
2021/12/06 15:02:49;;;;;;;1.50;1.50;;;1.70;99.90;;;;;;4898671;29;20214;-71
2021/12/06 15:05:19;;;;;;;1.17;1.17;;;1.60;99.90;;;;;;4898806;29;20194;-70
2021/12/06 15:07:54;;;;;;;1.40;1.40;;;1.60;99.90;;;;;;4898539;29;20289;-71
2021/12/06 15:10:23;;;;;;;1.10;1.10;;;1.50;99.90;;;;;;4898498;29;20237;-70
2021/12/06 15:12:51;;;;;;;1.00;1.00;;;1.50;99.90;;;;;;4898519;29;20281;-70
2021/12/06 15:15:28;;;;;;;1.10;1.10;;;1.40;99.90;;;;;;4898401;29;20297;-69
2021/12/06 15:17:56;;;;;;;1.13;1.13;;;1.40;99.90;;;;;;4898684;29;20193;-70
2021/12/06 15:20:24;;;;;;;1.20;1.20;;;1.30;99.90;;;;;;4898474;29;20316;-70
2021/12/06 15:22:51;;;;;;;1.23;1.23;;;1.20;99.90;;;;;;4898284;29;20233;-70
2021/12/06 15:25:19;;;;;;;1.33;1.33;;;1.20;99.90;;;;;;4898313;29;20575;-70
2021/12/06 15:27:48;;;;;;;1.00;1.00;;;1.20;99.90;;;;;;4898511;29;20197;-70
2021/12/06 15:30:17;;;;;;;1.10;1.10;;;1.10;99.90;;;;;;4898805;29;20599;-70
2021/12/06 15:32:48;;;;;;;1.05;1.05;;;1.00;99.90;;;;;;4901908;29;20741;-70
2021/12/06 15:35:24;;;;;;;1.20;1.20;;;1.00;99.90;;;;;;4902005;29;20186;-70
2021/12/06 15:37:51;;;;;;;1.00;1.00;;;0.90;99.90;;;;;;4902117;29;20259;-70
2021/12/06 15:40:18;;;;;;;0.90;0.90;;;0.90;99.90;;;;;;4902057;29;20322;-70
2021/12/06 15:42:44;;;;;;;0.93;0.93;;;0.80;99.90;;;;;;4902022;29;20232;-70
2021/12/06 15:45:13;;;;;;;1.00;1.00;;;0.80;99.90;;;;;;4902048;29;20292;-71
2021/12/06 15:47:46;;;;;;;0.90;0.90;;;0.80;99.90;;;;;;4901865;29;20216;-71
2021/12/06 15:50:16;;;;;;;1.10;1.10;;;0.80;99.90;;;;;;4901871;29;20234;-71
2021/12/06 15:52:45;;;;;;;1.23;1.23;;;0.80;99.90;;;;;;4901921;29;20202;-71
2021/12/06 15:55:16;;;;;;;1.10;1.10;;;0.70;99.90;;;;;;4901824;29;20220;-71
2021/12/06 15:57:43;;;;;;;1.10;1.10;;;0.70;99.90;;;;;;4901814;29;20285;-72
2021/12/06 16:00:12;;;;;;;1.20;1.20;;;;;;;;;;4901441;29;20773;-72
2021/12/06 16:02:43;;;;;;;1.23;1.23;;;0.70;99.90;;;;;;4901767;29;20232;-71
2021/12/06 16:05:15;;;;;;;1.30;1.30;;;0.70;99.90;;;;;;4902029;29;20191;-71
2021/12/06 16:07:42;;;;;;;1.38;1.27;;;0.60;99.90;;;;;;4901803;29;20197;-72
2021/12/06 16:10:12;;;;;;;1.45;1.45;;;0.60;99.90;;;;;;4901363;29;20340;-72
2021/12/06 16:12:48;;;;;;;1.50;1.40;;;0.50;99.90;;;;;;4901788;29;20198;-72
2021/12/06 16:15:16;;;;;;;1.25;1.25;;;0.40;99.90;;;;;;4901602;29;20552;-74
2021/12/06 16:17:44;;;;;;;1.60;1.50;;;0.40;99.90;;;;;;4901605;29;20190;-74
2021/12/06 16:20:12;;;;;;;1.45;1.42;;;0.30;99.90;;;;;;4901302;29;20677;-74
2021/12/06 16:22:39;;;;;;;1.45;1.45;;;0.30;99.90;;;;;;4901208;29;20225;-75
2021/12/06 16:25:07;;;;;;;1.23;1.23;;;0.30;99.90;;;;;;4901142;29;20237;-75
2021/12/06 16:27:34;;;;;;;1.40;1.40;;;0.20;99.90;;;;;;4901189;29;20273;-75
2021/12/06 16:30:05;;;;;;;1.35;1.30;;;0.20;99.90;;;;;;4901171;29;20317;-75
2021/12/06 16:32:32;;;;;;;1.20;1.20;;;0.20;99.90;;;;;;4901336;29;20213;-74
2021/12/06 16:35:00;;;;;;;1.13;1.13;;;0.20;99.90;;;;;;4901222;29;20277;-75
2021/12/06 16:37:29;;;;;;;1.33;1.30;;;0.10;99.90;;;;;;4900905;29;20297;-74
2021/12/06 16:39:58;;;;;;;1.60;1.50;;;0.10;99.90;;;;;;4900871;29;20222;-75
2021/12/06 16:42:29;;;;;;;1.42;1.42;;;0.10;99.90;;;;;;4900036;29;20256;-74
2021/12/06 16:44:58;;;;;;;1.75;1.65;;;0.10;99.90;;;;;;4900609;29;20532;-74
2021/12/06 16:47:28;;;;;;;1.45;1.45;;;0.00;99.90;;;;;;4900675;29;20190;-74
2021/12/06 16:50:07;;;;;;;1.40;1.40;;;0.00;99.90;;;;;;4900798;29;20582;-74
2021/12/06 16:52:38;;;;;;;1.30;1.30;;;0.00;99.90;;;;;;4900836;29;20289;-74
2021/12/06 16:55:15;;;;;;;1.65;1.65;;;-0.10;99.90;;;;;;4900983;29;20202;-74
2021/12/06 16:57:45;;;;;;;1.80;1.70;;;-0.10;99.90;;;;;;4900556;29;20194;-73
2021/12/06 17:00:18;;;;;;;1.63;1.50;;;-0.10;99.90;;;;;;4900531;29;20229;-72
2021/12/06 17:02:56;;;;;;;1.20;1.20;;;-0.20;99.90;;;;;;4900669;29;20210;-74
2021/12/06 17:05:23;;;;;;;1.17;1.17;;;-0.20;99.90;;;;;;4900515;29;20284;-72
2021/12/06 17:08:02;;;;;;;1.27;1.27;;;-0.30;99.90;;;;;;4900426;29;20300;-72
2021/12/06 17:10:32;;;;;;;1.30;1.30;;;-0.30;99.90;;;;;;4900564;29;20238;-72
2021/12/06 17:13:01;;;;;;;1.33;1.33;;;-0.30;99.90;;;;;;4901262;29;20208;-73
2021/12/06 17:15:31;;;;;;;1.30;1.30;;;-0.40;99.90;;;;;;4900528;29;20205;-73
2021/12/06 17:17:59;;;;;;;1.50;1.50;;;-0.40;99.90;;;;;;4900420;29;20297;-73
2021/12/06 17:20:30;;;;;;;1.30;1.30;;;-0.40;99.90;;;;;;4900260;29;20229;-73
2021/12/06 17:23:00;;;;;;;1.67;1.58;;;-0.50;99.90;;;;;;4900701;29;20221;-72
2021/12/06 17:25:30;;;;;;;1.25;1.25;;;-0.50;99.90;;;;;;4899985;29;20195;-74
2021/12/06 17:28:10;;;;;;;1.33;1.33;;;-0.50;99.90;;;;;;4900133;29;20206;-74
2021/12/06 17:30:45;;;;;;;1.48;1.48;;;-0.50;99.90;;;;;;4900073;29;20226;-73
2021/12/06 17:33:12;;;;;;;1.27;1.27;;;-0.50;99.90;;;;;;4900213;29;20192;-76
2021/12/06 17:35:39;;;;;;;1.40;1.30;;;-0.60;99.90;;;;;;4900001;29;20300;-73
2021/12/06 17:38:08;;;;;;;1.38;1.38;;;-0.60;99.90;;;;;;4899619;29;20696;-74
2021/12/06 17:40:35;;;;;;;1.10;1.10;;;-0.60;99.90;;;;;;4899545;29;20706;-73
2021/12/06 17:43:02;;;;;;;1.20;1.20;;;-0.60;99.90;;;;;;4899942;29;20221;-73
2021/12/06 17:45:29;;;;;;;1.20;1.20;;;-0.70;99.90;;;;;;4899612;29;20638;-75
2021/12/06 17:47:56;;;;;;;1.30;1.30;;;-0.70;99.90;;;;;;4899977;29;20210;-70
2021/12/06 17:50:23;;;;;;;1.20;1.20;;;-0.70;99.90;;;;;;4900030;29;20237;-70
2021/12/06 17:52:50;;;;;;;1.10;1.10;;;-0.70;99.90;;;;;;4899469;29;20642;-70
2021/12/06 17:55:18;;;;;;;1.08;1.08;;;-0.70;99.90;;;;;;4899961;29;20304;-70
2021/12/06 17:57:53;;;;;;;1.20;1.20;;;-0.80;99.90;;;;;;4899612;29;20293;-70
2021/12/06 18:00:21;;;;;;;1.10;1.10;;;-0.80;99.90;;;;;;4899603;29;20268;-69
2021/12/06 18:02:49;;;;;;;1.13;1.13;;;-0.80;99.90;;;;;;4899304;29;20202;-69
2021/12/06 18:05:17;;;;;;;1.17;1.17;;;-0.90;99.90;;;;;;4899263;29;20701;-70
2021/12/06 18:07:45;;;;;;;1.10;1.10;;;-0.90;99.90;;;;;;4899270;29;20202;-70
2021/12/06 18:10:15;;;;;;;1.13;1.13;;;-0.90;99.90;;;;;;4899136;29;20236;-70
2021/12/06 18:12:43;;;;;;;1.00;1.00;;;-0.90;99.90;;;;;;4899480;29;20187;-70
2021/12/06 18:15:12;;;;;;;1.25;1.10;;;-0.90;99.90;;;;;;4901879;29;20297;-70
2021/12/06 18:17:39;;;;;;;1.23;1.23;;;-1.00;99.90;;;;;;4903705;29;20285;-70
2021/12/06 18:20:10;;;;;;;1.10;1.10;;;-1.00;99.90;;;;;;4903833;29;20236;-70
2021/12/06 18:22:37;;;;;;;1.00;1.00;;;-1.00;99.90;;;;;;4903692;29;20190;-70
2021/12/06 18:25:06;;;;;;;1.00;1.00;;;-1.00;99.90;;;;;;4903381;29;20230;-70
2021/12/06 18:27:33;;;;;;;1.10;1.10;;;-1.00;99.90;;;;;;4903299;29;20209;-70
2021/12/06 18:30:04;;;;;;;0.90;0.90;;;-1.00;99.90;;;;;;4904251;29;20742;-70
2021/12/06 18:32:31;;;;;;;1.35;1.35;;;-1.00;99.90;;;;;;4904321;29;20201;-70
2021/12/06 18:34:59;;;;;;;1.13;1.13;;;-1.00;99.90;;;;;;4903084;29;20289;-70
2021/12/06 18:37:29;;;;;;;1.10;1.10;;;-1.00;99.90;;;;;;4903709;29;20210;-70
2021/12/06 18:40:01;;;;;;;1.00;1.00;;;-0.90;99.90;;;;;;4903555;29;20226;-70
2021/12/06 18:42:29;;;;;;;0.90;0.90;;;-0.90;99.90;;;;;;4902237;29;20194;-69
2021/12/06 18:44:57;;;;;;;1.17;1.17;;;-0.90;99.90;;;;;;4902218;29;20229;-69
2021/12/06 18:47:31;;;;;;;1.10;1.10;;;-0.90;99.90;;;;;;4902071;29;20206;-69
2021/12/06 18:49:59;;;;;;;1.00;1.00;;;-0.80;99.90;;;;;;4903220;29;20289;-69
2021/12/06 18:52:27;;;;;;;1.30;1.30;;;-0.80;99.90;;;;;;4903418;29;20308;-74
2021/12/06 18:54:54;;;;;;;1.00;1.00;;;-0.70;99.90;;;;;;4902545;29;20216;-74
2021/12/06 18:57:23;;;;;;;0.90;0.90;;;-0.70;99.90;;;;;;4902657;29;20293;-74
2021/12/06 18:59:51;;;;;;;1.20;1.20;;;-0.60;99.90;;;;;;4899563;29;20226;-74
2021/12/06 19:02:18;;;;;;;1.33;1.33;;;-0.60;99.90;;;;;;4900794;29;20208;-74
2021/12/06 19:04:47;;;;;;;1.15;1.15;;;-0.50;99.90;;;;;;4902586;29;20312;-75
2021/12/06 19:07:14;;;;;;;0.95;0.95;;;-0.50;99.90;;;;;;4901842;29;20301;-75
2021/12/06 19:09:41;;;;;;;1.23;1.23;;;-0.40;99.90;;;;;;4900359;29;20308;-74
2021/12/06 19:12:09;;;;;;;1.65;1.65;;;-0.40;99.90;;;;;;4899555;29;20224;-74
2021/12/06 19:14:37;;;;;;;1.50;1.50;;;-0.30;99.90;;;;;;4899013;29;20208;-74
2021/12/06 19:17:07;;;;;;;1.30;1.30;;;-0.30;99.90;;;;;;4898986;29;20678;-74
2021/12/06 19:19:33;;;;;;;1.58;1.48;;;-0.20;99.90;;;;;;4900316;29;20285;-74
2021/12/06 19:22:02;;;;;;;2.22;2.10;;;-0.10;99.90;;;;;;4899452;29;20201;-74
2021/12/06 19:24:28;;;;;;;2.05;1.95;;;-0.10;99.90;;;;;;4899637;29;20314;-74
2021/12/06 19:26:56;;;;;;;1.80;1.80;;;-0.10;99.90;;;;;;4900301;29;20297;-74
2021/12/06 19:29:23;;;;;;;2.17;2.08;;;-0.10;99.90;;;;;;4898442;29;20236;-75
2021/12/06 19:31:51;;;;;;;1.65;1.65;;;-0.10;99.90;;;;;;4898523;29;20293;-74
2021/12/06 19:34:19;;;;;;;1.88;1.77;;;-0.10;99.90;;;;;;4898031;29;20209;-70
2021/12/06 19:36:46;;;;;;;2.10;2.00;;;-0.10;99.90;;;;;;4899061;29;20206;-70
2021/12/06 19:39:15;;;;;;;2.13;2.03;;;-0.20;99.90;;;;;;4898032;29;20608;-70
2021/12/06 19:41:42;;;;;;;2.05;1.95;;;-0.20;99.90;;;;;;4898502;29;20202;-72
2021/12/06 19:44:09;;;;;;;1.63;1.60;;;-0.20;99.90;;;;;;4898021;29;20230;-73
2021/12/06 19:46:36;;;;;;;1.70;1.70;;;-0.20;99.90;;;;;;4898263;29;20212;-72
2021/12/06 19:49:03;;;;;;;1.75;1.75;;;-0.30;99.90;;;;;;4898250;29;20222;-72
2021/12/06 19:51:31;;;;;;;2.05;1.95;;;-0.30;99.90;;;;;;4897921;29;20666;-72
2021/12/06 19:53:58;;;;;;;1.60;1.60;;;-0.30;99.90;;;;;;4898038;29;20579;-72
2021/12/06 19:56:27;;;;;;;1.40;1.40;;;-0.40;99.90;;;;;;4897974;29;20765;-72
2021/12/06 19:58:54;;;;;;;1.52;1.52;;;-0.40;99.90;;;;;;4898030;29;20283;-72
2021/12/06 20:01:21;;;;;;;1.80;1.70;;;-0.40;99.90;;;;;;4898110;29;20206;-72
2021/12/06 20:03:51;;;;;;;1.55;1.48;;;-0.50;99.90;;;;;;4898008;29;20229;-72
2021/12/06 20:06:18;;;;;;;1.52;1.52;;;-0.50;99.90;;;;;;4897743;29;20666;-72
2021/12/06 20:08:45;;;;;;;1.75;1.65;;;-0.50;99.90;;;;;;4897845;29;20670;-72
2021/12/06 20:11:14;;;;;;;1.80;1.80;;;-0.60;99.90;;;;;;4897887;29;20224;-72
2021/12/06 20:13:42;;;;;;;1.40;1.40;;;-0.60;99.90;;;;;;4897721;29;20212;-72
2021/12/06 20:16:12;;;;;;;1.92;1.83;;;-0.60;99.90;;;;;;4898032;29;20249;-72
2021/12/06 20:18:41;;;;;;;1.58;1.58;;;-0.60;99.90;;;;;;4900312;29;20214;-72
2021/12/06 20:21:10;;;;;;;1.60;1.60;;;-0.60;99.90;;;;;;4901711;29;20313;-72
2021/12/06 20:23:38;;;;;;;1.80;1.80;;;-0.60;99.90;;;;;;4901497;29;20301;-72
2021/12/06 20:26:08;;;;;;;2.13;2.05;;;-0.60;99.90;;;;;;4901107;29;20297;-72
2021/12/06 20:28:36;;;;;;;1.98;1.98;;;-0.60;99.90;;;;;;4901196;29;20213;-72
2021/12/06 20:31:07;;;;;;;2.78;1.77;;;-0.60;99.90;;;;;;4900927;29;20678;-72
2021/12/06 20:33:34;;;;;;;1.50;1.50;;;-0.60;99.90;;;;;;4901523;29;20198;-72
2021/12/06 20:36:01;;;;;;;1.73;1.73;;;-0.60;99.90;;;;;;4901122;29;20213;-72
2021/12/06 20:38:28;;;;;;;1.75;1.70;;;-0.60;99.90;;;;;;4901270;29;20293;-72
2021/12/06 20:40:56;;;;;;;1.85;1.80;;;-0.50;99.90;;;;;;4901095;29;20692;-72
2021/12/06 20:43:23;;;;;;;1.88;1.80;;;-0.50;99.90;;;;;;4901173;29;20210;-72
2021/12/06 20:45:50;;;;;;;1.73;1.73;;;-0.50;99.90;;;;;;4900930;29;20226;-72
2021/12/06 20:48:18;;;;;;;1.88;1.77;;;-0.40;99.90;;;;;;4901556;29;20629;-71
2021/12/06 20:50:49;;;;;;;2.03;1.98;;;-0.40;99.90;;;;;;4900791;29;20285;-72
2021/12/06 20:53:17;;;;;;;2.13;2.03;;;-0.40;99.90;;;;;;4900548;29;20713;-72
2021/12/06 20:55:44;;;;;;;2.00;1.90;;;-0.30;99.90;;;;;;4900812;29;20198;-72
2021/12/06 20:58:12;;;;;;;1.65;1.65;;;-0.30;99.90;;;;;;4900603;29;20666;-72
2021/12/06 21:00:41;;;;;;;2.40;2.30;;;-0.30;99.90;;;;;;4900635;29;20232;-72
2021/12/06 21:03:12;;;;;;;2.00;1.90;;;-0.30;99.90;;;;;;4900632;29;20248;-72
2021/12/06 21:05:41;;;;;;;1.75;1.75;;;-0.30;99.90;;;;;;4900528;29;20214;-72
2021/12/06 21:08:09;;;;;;;2.10;2.00;;;-0.30;99.90;;;;;;4900677;29;20297;-72
2021/12/06 21:10:41;;;;;;;2.50;2.40;;;-0.30;99.90;;;;;;4900288;29;20241;-72
2021/12/06 21:13:33;;;;;;;3.17;2.97;;;-0.30;99.90;;;;;;4900638;29;20194;-72
2021/12/06 21:16:17;;;;;;;3.03;2.83;;;-0.30;99.90;;;;;;4900504;29;20197;-72
2021/12/06 21:18:44;;;;;;;2.58;2.47;;;-0.20;99.90;;;;;;4900346;29;20242;-71
2021/12/06 21:21:12;;;;;;;3.42;3.20;;;-0.20;99.90;;;;;;4900528;29;20208;-71
2021/12/06 21:23:39;;;;;;;3.55;3.15;;;-0.20;99.90;;;;;;4900022;29;20206;-71
2021/12/06 21:26:06;;;;;;;2.78;2.67;;;-0.20;99.90;;;;;;4899998;29;20736;-71
2021/12/06 21:28:34;;;;;;;3.00;2.80;;;-0.20;99.90;;;;;;4899618;29;20688;-72
2021/12/06 21:31:01;;;;;;;3.00;2.80;;;-0.20;99.90;;;;;;4900137;29;20212;-72
2021/12/06 21:33:27;;;;;;;2.70;2.60;;;-0.10;99.90;;;;;;4900072;29;20212;-72
2021/12/06 21:35:55;;;;;;;2.97;2.78;;;-0.10;99.90;;;;;;4899983;29;20201;-72
2021/12/06 21:38:23;;;;;;;3.15;2.95;;;-0.10;99.90;;;;;;4899971;29;20205;-72
2021/12/06 21:40:50;;;;;;;3.72;3.42;;;-0.10;99.90;;;;;;4900003;29;20593;-72
2021/12/06 21:43:18;;;;;;;4.35;3.95;;;-0.10;99.90;;;;;;4900082;29;20216;-72
2021/12/06 21:45:46;;;;;;;2.97;2.88;;;-0.10;99.90;;;;;;4899767;29;20226;-72
2021/12/06 21:48:13;;;;;;;3.40;3.20;;;-0.10;99.90;;;;;;4899815;29;20209;-72
2021/12/06 21:50:40;;;;;;;3.35;3.15;;;-0.10;99.90;;;;;;4899423;29;20317;-72
2021/12/06 21:53:09;;;;;;;8.65;7.47;;;-0.10;99.90;;;;;;4899418;29;20675;-72
2021/12/06 21:55:37;;;;;;;9.60;8.02;;;-0.10;99.90;;;;;;4899388;29;20677;-72
2021/12/06 21:58:05;;;;;;;8.93;7.10;;;-0.10;99.90;;;;;;4899615;29;20653;-72
2021/12/06 22:00:33;;;;;;;7.68;6.88;;;0.00;99.90;;;;;;4899512;29;20660;-72
2021/12/06 22:03:06;;;;;;;6.85;6.15;;;0.00;99.90;;;;;;4899505;29;20206;-72
2021/12/06 22:05:35;;;;;;;7.88;5.88;;;0.10;99.90;;;;;;4899453;29;20214;-73
2021/12/06 22:08:02;;;;;;;6.68;6.00;;;0.10;99.90;;;;;;4899181;29;20252;-73
2021/12/06 22:10:29;;;;;;;6.75;6.05;;;0.20;99.90;;;;;;4899174;29;20318;-73
2021/12/06 22:12:58;;;;;;;6.05;5.55;;;0.20;99.90;;;;;;4899414;29;20212;-74
2021/12/06 22:15:25;;;;;;;5.15;4.75;;;0.20;99.90;;;;;;4899321;29;20198;-74
2021/12/06 22:17:55;;;;;;;6.10;5.50;;;0.30;99.90;;;;;;4898983;29;20571;-73
2021/12/06 22:20:22;;;;;;;6.13;5.45;;;0.30;99.90;;;;;;4899068;29;20609;-74
2021/12/06 22:22:49;;;;;;;5.38;4.90;;;0.30;99.90;;;;;;4899201;29;20269;-72
2021/12/06 22:25:18;;;;;;;5.50;5.03;;;0.30;99.90;;;;;;4899079;29;20225;-72
2021/12/06 22:27:47;;;;;;;5.20;4.70;;;0.30;99.90;;;;;;4899147;29;20331;-72
2021/12/06 22:30:17;;;;;;;5.47;4.97;;;0.30;99.90;;;;;;4899020;29;20277;-72
2021/12/06 22:32:46;;;;;;;6.43;5.78;;;0.40;99.90;;;;;;4899099;29;20190;-72
2021/12/06 22:35:14;;;;;;;6.18;5.57;;;0.40;99.90;;;;;;4898965;29;20214;-72
2021/12/06 22:37:42;;;;;;;5.80;5.20;;;0.40;99.90;;;;;;4898944;29;20210;-72
2021/12/06 22:40:11;;;;;;;5.40;4.90;;;0.40;99.90;;;;;;4897909;29;20236;-72
2021/12/06 22:42:38;;;;;;;6.57;5.93;;;0.40;99.90;;;;;;4898859;29;20309;-72
2021/12/06 22:45:07;;;;;;;6.15;5.55;;;0.40;99.90;;;;;;4898766;29;20317;-72
2021/12/06 22:47:35;;;;;;;5.47;4.97;;;0.40;99.90;;;;;;4898828;29;20696;-72
2021/12/06 22:50:04;;;;;;;6.07;5.47;;;0.50;99.90;;;;;;4898743;29;20313;-72
2021/12/06 22:52:31;;;;;;;6.32;5.72;;;0.50;99.90;;;;;;4898729;29;20210;-72
2021/12/06 22:54:58;;;;;;;4.53;4.20;;;0.50;99.90;;;;;;4898372;29;20233;-72
2021/12/06 22:57:25;;;;;;;7.00;5.60;;;0.50;99.90;;;;;;4898690;29;20293;-71
